createdAt,value
2022-09-23T00:01:24.285Z,3.10
2022-09-23T00:03:52.440Z,3.67
2022-09-23T00:06:23.961Z,3.87
2022-09-23T00:08:53.645Z,4.10
2022-09-23T00:11:24.500Z,3.50
2022-09-23T00:13:56.035Z,3.47
2022-09-23T00:16:28.343Z,3.87
2022-09-23T00:18:57.133Z,4.60
2022-09-23T00:21:26.531Z,4.20
2022-09-23T00:23:55.085Z,3.67
2022-09-23T00:26:24.512Z,3.70
2022-09-23T00:28:53.413Z,3.50
2022-09-23T00:31:23.829Z,3.93
2022-09-23T00:33:55.172Z,3.83
2022-09-23T00:36:23.602Z,4.13
2022-09-23T00:38:54.069Z,4.37
2022-09-23T00:41:22.700Z,4.67
2022-09-23T00:43:54.538Z,4.37
2022-09-23T00:46:29.933Z,3.83
2022-09-23T00:49:03.882Z,4.80
2022-09-23T00:51:39.510Z,4.30
2022-09-23T00:54:09.831Z,4.97
2022-09-23T00:56:40.272Z,4.20
2022-09-23T00:59:11.158Z,4.00
2022-09-23T01:01:40.490Z,4.03
2022-09-23T01:04:09.788Z,3.57
2022-09-23T01:06:38.143Z,3.97
2022-09-23T01:09:07.975Z,3.87
2022-09-23T01:11:47.627Z,3.40
2022-09-23T01:14:36.032Z,3.40
2022-09-23T01:17:10.383Z,3.53
2022-09-23T01:20:29.690Z,3.13
2022-09-23T01:23:17.560Z,3.60
2022-09-23T01:26:14.667Z,3.73
2022-09-23T01:29:19.229Z,3.20
2022-09-23T01:31:59.995Z,3.37
2022-09-23T01:34:37.316Z,4.33
2022-09-23T01:37:15.536Z,3.10
2022-09-23T01:39:51.206Z,2.90
2022-09-23T01:42:29.470Z,3.10
2022-09-23T01:45:03.017Z,3.23
2022-09-23T01:47:38.692Z,3.10
2022-09-23T01:50:26.024Z,3.20
2022-09-23T01:52:59.075Z,3.50
2022-09-23T01:55:34.138Z,3.07
2022-09-23T01:58:08.765Z,3.53
2022-09-23T02:00:45.169Z,3.60
2022-09-23T02:03:27.303Z,3.40
2022-09-23T02:06:05.337Z,3.20
2022-09-23T02:08:42.791Z,3.73
2022-09-23T02:11:15.290Z,3.43
2022-09-23T02:13:52.338Z,3.70
2022-09-23T02:16:29.191Z,3.33
2022-09-23T02:19:05.164Z,3.10
2022-09-23T02:21:39.422Z,3.43
2022-09-23T02:24:13.610Z,3.73
2022-09-23T02:26:50.805Z,3.73
2022-09-23T02:29:26.834Z,3.47
2022-09-23T02:32:03.552Z,2.87
2022-09-23T02:34:47.495Z,3.40
2022-09-23T02:37:32.256Z,3.40
2022-09-23T02:40:13.644Z,3.80
2022-09-23T02:42:56.325Z,3.60
2022-09-23T02:45:24.950Z,3.20
2022-09-23T02:48:03.394Z,2.73
2022-09-23T02:50:33.572Z,2.83
2022-09-23T02:53:02.357Z,2.47
2022-09-23T02:55:32.349Z,3.47
2022-09-23T02:58:04.043Z,3.10
2022-09-23T03:00:53.898Z,2.80
2022-09-23T03:03:41.639Z,2.80
2022-09-23T03:06:28.641Z,3.27
2022-09-23T03:09:06.721Z,3.53
2022-09-23T03:11:41.113Z,3.30
2022-09-23T03:14:19.740Z,3.27
2022-09-23T03:16:57.501Z,3.30
2022-09-23T03:19:33.789Z,3.50
2022-09-23T03:22:10.507Z,3.07
2022-09-23T03:24:44.707Z,3.27
2022-09-23T03:27:17.799Z,3.67
2022-09-23T03:29:49.590Z,3.43
2022-09-23T03:32:22.713Z,3.40
2022-09-23T03:34:53.466Z,3.40
2022-09-23T03:37:30.170Z,3.43
2022-09-23T03:40:08.154Z,3.50
2022-09-23T03:42:38.849Z,3.70
2022-09-23T03:45:12.944Z,3.30
2022-09-23T03:47:42.221Z,3.27
2022-09-23T03:50:13.289Z,3.20
2022-09-23T03:52:42.736Z,3.40
2022-09-23T03:55:12.285Z,3.70
2022-09-23T03:57:40.418Z,3.60
2022-09-23T04:00:10.616Z,4.03
2022-09-23T04:02:42.441Z,3.40
2022-09-23T04:05:13.245Z,3.53
2022-09-23T04:07:42.906Z,3.60
2022-09-23T04:10:12.194Z,3.60
2022-09-23T04:12:40.385Z,3.63
2022-09-23T04:15:09.534Z,4.13
2022-09-23T04:17:37.657Z,4.07
2022-09-23T04:20:06.988Z,4.03
2022-09-23T04:22:35.568Z,4.67
2022-09-23T04:25:05.712Z,4.07
2022-09-23T04:27:37.584Z,3.70
2022-09-23T04:30:07.345Z,4.77
2022-09-23T04:32:35.510Z,5.10
2022-09-23T04:35:03.586Z,4.83
2022-09-23T04:37:31.703Z,4.03
2022-09-23T04:39:59.871Z,5.00
2022-09-23T04:42:31.160Z,4.20
2022-09-23T04:44:59.258Z,4.17
2022-09-23T04:47:27.479Z,4.20
2022-09-23T04:49:59.534Z,3.40
2022-09-23T04:52:28.203Z,3.83
2022-09-23T04:54:56.355Z,4.27
2022-09-23T04:57:24.532Z,5.40
2022-09-23T04:59:54.830Z,4.60
2022-09-23T05:02:23.009Z,4.67
2022-09-23T05:04:51.149Z,5.27
2022-09-23T05:07:19.275Z,4.80
2022-09-23T05:09:47.451Z,5.37
2022-09-23T05:12:15.577Z,5.93
2022-09-23T05:14:43.638Z,5.27
2022-09-23T05:17:13.148Z,4.73
2022-09-23T05:19:41.257Z,5.17
2022-09-23T05:22:09.320Z,4.27
2022-09-23T05:24:37.592Z,4.77
2022-09-23T05:27:07.016Z,5.30
2022-09-23T05:29:35.661Z,4.47
2022-09-23T05:32:03.801Z,4.60
2022-09-23T05:34:33.301Z,4.77
2022-09-23T05:37:01.406Z,4.87
2022-09-23T05:39:29.691Z,4.53
2022-09-23T05:41:59.967Z,4.73
2022-09-23T05:44:28.259Z,4.90
2022-09-23T05:46:56.467Z,4.40
2022-09-23T05:49:42.489Z,4.37
2022-09-23T05:52:14.316Z,4.70
2022-09-23T05:54:42.537Z,5.17
2022-09-23T05:57:10.613Z,5.60
2022-09-23T05:59:39.048Z,6.20
2022-09-23T06:02:07.504Z,6.60
2022-09-23T06:04:35.784Z,7.27
2022-09-23T06:07:03.983Z,7.83
2022-09-23T06:09:36.758Z,7.47
2022-09-23T06:12:06.297Z,7.43
2022-09-23T06:14:34.513Z,10.00
2022-09-23T06:17:02.638Z,9.50
2022-09-23T06:19:30.718Z,8.53
2022-09-23T06:21:59.510Z,7.80
2022-09-23T06:24:31.297Z,8.10
2022-09-23T06:27:02.482Z,7.97
2022-09-23T06:29:33.113Z,7.20
2022-09-23T06:32:01.461Z,7.27
2022-09-23T06:34:30.778Z,6.93
2022-09-23T06:37:06.129Z,6.73
2022-09-23T06:39:40.429Z,6.80
2022-09-23T06:42:09.993Z,7.17
2022-09-23T06:44:38.116Z,6.70
2022-09-23T06:47:06.463Z,7.43
2022-09-23T06:49:34.721Z,9.17
2022-09-23T06:52:03.416Z,8.93
2022-09-23T06:54:31.689Z,8.50
2022-09-23T06:56:59.805Z,8.70
2022-09-23T06:59:29.233Z,7.93
2022-09-23T07:01:57.405Z,6.93
2022-09-23T07:04:29.208Z,7.33
2022-09-23T07:06:57.799Z,6.87
2022-09-23T07:09:25.963Z,7.17
2022-09-23T07:11:54.237Z,6.83
2022-09-23T07:14:23.003Z,6.63
2022-09-23T07:16:53.837Z,7.80
2022-09-23T07:19:21.927Z,7.43
2022-09-23T07:21:50.059Z,7.50
2022-09-23T07:24:18.158Z,7.17
2022-09-23T07:26:46.314Z,7.07
2022-09-23T07:29:15.701Z,6.80
2022-09-23T07:31:43.891Z,7.47
2022-09-23T07:34:13.607Z,7.57
2022-09-23T07:36:42.429Z,7.47
2022-09-23T07:39:13.725Z,7.23
2022-09-23T07:41:44.526Z,6.50
2022-09-23T07:44:13.444Z,7.33
2022-09-23T07:46:41.605Z,6.97
2022-09-23T07:49:10.508Z,6.80
2022-09-23T07:51:42.865Z,6.33
2022-09-23T07:54:14.446Z,6.37
2022-09-23T07:56:44.024Z,6.23
2022-09-23T07:59:18.200Z,5.90
2022-09-23T08:01:50.550Z,5.97
2022-09-23T08:04:21.703Z,5.60
2022-09-23T08:06:54.447Z,5.70
2022-09-23T08:09:27.007Z,5.40
2022-09-23T08:11:56.258Z,5.40
2022-09-23T08:14:24.801Z,4.40
2022-09-23T08:16:54.073Z,4.73
2022-09-23T08:19:22.322Z,4.77
2022-09-23T08:21:54.464Z,4.17
2022-09-23T08:24:24.498Z,4.10
2022-09-23T08:26:54.503Z,3.88
2022-09-23T08:29:24.969Z,3.30
2022-09-23T08:31:53.940Z,3.73
2022-09-23T08:34:24.415Z,2.70
2022-09-23T08:36:53.925Z,3.00
2022-09-23T08:39:23.069Z,2.65
2022-09-23T08:42:12.737Z,3.47
2022-09-23T08:44:50.433Z,2.42
2022-09-23T08:47:25.825Z,2.60
2022-09-23T08:50:06.626Z,2.30
2022-09-23T08:52:50.680Z,2.25
2022-09-23T08:55:19.909Z,2.20
2022-09-23T08:58:24.452Z,2.50
2022-09-23T09:01:06.967Z,2.50
2022-09-23T09:03:43.747Z,2.65
2022-09-23T09:06:18.886Z,2.17
2022-09-23T09:08:58.438Z,2.15
2022-09-23T09:11:36.621Z,2.15
2022-09-23T09:14:22.789Z,2.00
2022-09-23T09:17:07.971Z,2.15
2022-09-23T09:19:57.326Z,1.80
2022-09-23T09:22:53.912Z,1.98
2022-09-23T09:25:43.390Z,2.30
2022-09-23T09:28:20.005Z,1.88
2022-09-23T09:30:54.900Z,1.77
2022-09-23T09:33:31.068Z,1.77
2022-09-23T09:36:20.050Z,1.52
2022-09-23T09:38:48.385Z,1.70
2022-09-23T09:41:21.345Z,1.52
2022-09-23T09:43:53.385Z,1.52
2022-09-23T09:46:45.038Z,1.50
2022-09-23T09:49:24.370Z,1.80
2022-09-23T09:52:15.318Z,1.38
2022-09-23T09:54:44.347Z,1.30
2022-09-23T09:57:32.099Z,1.35
2022-09-23T10:00:36.675Z,1.25
2022-09-23T10:03:27.438Z,1.92
2022-09-23T10:05:57.600Z,1.65
2022-09-23T10:08:32.099Z,1.23
2022-09-23T10:11:07.313Z,2.05
2022-09-23T10:13:37.843Z,1.60
2022-09-23T10:16:07.305Z,1.67
2022-09-23T10:18:39.385Z,1.30
2022-09-23T10:21:12.107Z,1.40
2022-09-23T10:23:44.648Z,1.27
2022-09-23T10:26:17.286Z,1.23
2022-09-23T10:28:53.126Z,1.40
2022-09-23T10:31:27.248Z,1.38
2022-09-23T10:33:59.710Z,1.75
2022-09-23T10:36:29.340Z,1.65
2022-09-23T10:39:20.588Z,1.25
2022-09-23T10:42:18.472Z,1.10
2022-09-23T10:45:21.759Z,1.15
2022-09-23T10:47:58.879Z,1.10
2022-09-23T10:50:40.537Z,1.40
2022-09-23T10:53:22.804Z,1.08
2022-09-23T10:56:17.149Z,1.50
2022-09-23T10:59:24.051Z,1.17
2022-09-23T11:02:09.577Z,1.10
2022-09-23T11:05:11.743Z,1.25
2022-09-23T11:07:49.476Z,1.08
2022-09-23T11:10:57.789Z,0.95
2022-09-23T11:14:05.942Z,1.25
2022-09-23T11:16:54.820Z,1.30
2022-09-23T11:20:00.227Z,1.13
2022-09-23T11:22:53.054Z,1.40
2022-09-23T11:25:38.282Z,1.17
2022-09-23T11:28:50.586Z,1.40
2022-09-23T11:31:38.193Z,1.00
2022-09-23T11:34:28.849Z,1.60
2022-09-23T11:37:05.887Z,1.27
2022-09-23T11:39:41.987Z,1.27
2022-09-23T11:42:22.665Z,1.10
2022-09-23T11:44:58.931Z,1.48
2022-09-23T11:47:38.962Z,1.33
2022-09-23T11:50:21.093Z,1.67
2022-09-23T11:52:59.624Z,2.35
2022-09-23T11:55:33.599Z,1.30
2022-09-23T11:58:21.998Z,1.15
2022-09-23T12:01:01.399Z,1.40
2022-09-23T12:03:45.436Z,2.08
2022-09-23T12:06:20.649Z,1.20
2022-09-23T12:08:56.823Z,1.33
2022-09-23T12:11:35.817Z,1.45
2022-09-23T12:14:19.494Z,0.93
2022-09-23T12:17:19.715Z,2.08
2022-09-23T12:20:20.741Z,1.13
2022-09-23T12:23:03.314Z,1.27
2022-09-23T12:25:46.376Z,1.00
2022-09-23T12:28:20.263Z,1.40
2022-09-23T12:30:51.037Z,2.03
2022-09-23T12:33:24.823Z,2.00
2022-09-23T12:35:56.200Z,1.40
2022-09-23T12:38:29.018Z,1.20
2022-09-23T12:40:58.739Z,1.70
2022-09-23T12:43:34.503Z,1.10
2022-09-23T12:46:21.652Z,1.38
2022-09-23T12:49:02.694Z,0.90
2022-09-23T12:51:32.009Z,0.85
2022-09-23T12:54:24.227Z,1.38
2022-09-23T12:57:02.937Z,1.55
2022-09-23T12:59:59.608Z,0.90
2022-09-23T13:02:38.354Z,0.95
2022-09-23T13:05:38.043Z,0.98
2022-09-23T13:08:10.745Z,1.00
2022-09-23T13:10:48.216Z,1.08
2022-09-23T13:13:27.445Z,1.00
2022-09-23T13:15:55.887Z,1.00
2022-09-23T13:18:52.585Z,0.93
2022-09-23T13:22:14.069Z,1.08
2022-09-23T13:24:48.190Z,0.88
2022-09-23T13:27:26.760Z,1.00
2022-09-23T13:30:23.613Z,1.30
2022-09-23T13:33:09.724Z,1.13
2022-09-23T13:35:43.022Z,1.25
2022-09-23T13:38:13.106Z,1.02
2022-09-23T13:40:44.925Z,1.20
2022-09-23T13:43:23.116Z,1.30
2022-09-23T13:45:52.968Z,1.30
2022-09-23T13:48:26.869Z,1.52
2022-09-23T13:50:56.027Z,0.90
2022-09-23T13:53:29.014Z,1.17
2022-09-23T13:56:07.164Z,1.10
2022-09-23T13:58:37.083Z,1.52
2022-09-23T14:01:10.234Z,2.25
2022-09-23T14:03:40.233Z,1.30
2022-09-23T14:06:14.480Z,0.80
2022-09-23T14:08:46.846Z,0.95
2022-09-23T14:11:17.947Z,1.00
2022-09-23T14:13:49.581Z,1.00
2022-09-23T14:16:19.672Z,0.90
2022-09-23T14:18:51.764Z,1.10
2022-09-23T14:21:35.645Z,1.13
2022-09-23T14:24:16.194Z,0.80
2022-09-23T14:26:48.342Z,1.10
2022-09-23T14:29:19.720Z,1.20
2022-09-23T14:31:58.059Z,0.90
2022-09-23T14:34:49.062Z,1.13
2022-09-23T14:37:48.687Z,0.90
2022-09-23T14:40:20.701Z,1.10
2022-09-23T14:42:57.524Z,1.10
2022-09-23T14:45:28.720Z,1.25
2022-09-23T14:48:03.100Z,1.15
2022-09-23T14:50:47.099Z,0.90
2022-09-23T14:53:40.246Z,1.13
2022-09-23T14:56:21.136Z,1.00
2022-09-23T14:58:55.978Z,0.90
2022-09-23T15:01:40.188Z,1.05
2022-09-23T15:04:17.139Z,1.20
2022-09-23T15:06:52.024Z,1.08
2022-09-23T15:09:27.685Z,0.90
2022-09-23T15:12:01.674Z,1.08
2022-09-23T15:14:39.253Z,1.10
2022-09-23T15:17:33.958Z,1.10
2022-09-23T15:20:08.482Z,0.82
2022-09-23T15:22:45.213Z,1.08
2022-09-23T15:25:20.777Z,0.98
2022-09-23T15:28:23.530Z,1.02
2022-09-23T15:30:51.727Z,1.02
2022-09-23T15:33:24.991Z,1.08
2022-09-23T15:35:55.288Z,1.00
2022-09-23T15:38:23.952Z,0.95
2022-09-23T15:40:52.183Z,1.10
2022-09-23T15:43:24.057Z,0.90
2022-09-23T15:45:55.999Z,1.45
2022-09-23T15:48:28.644Z,1.00
2022-09-23T15:50:59.137Z,1.30
2022-09-23T15:53:29.878Z,1.20
2022-09-23T15:55:58.692Z,1.40
2022-09-23T15:58:27.923Z,1.20
2022-09-23T16:00:57.843Z,1.58
2022-09-23T16:03:28.986Z,1.48
2022-09-23T16:06:03.055Z,1.58
2022-09-23T16:08:32.927Z,1.75
2022-09-23T16:11:01.491Z,1.67
2022-09-23T16:13:29.743Z,1.60
2022-09-23T16:15:58.006Z,1.42
2022-09-23T16:18:27.301Z,1.48
2022-09-23T16:20:58.208Z,1.50
2022-09-23T16:23:39.862Z,2.10
2022-09-23T16:26:15.615Z,1.35
2022-09-23T16:28:44.655Z,1.60
2022-09-23T16:31:16.215Z,1.40
2022-09-23T16:33:45.407Z,1.48
2022-09-23T16:36:22.007Z,1.92
2022-09-23T16:38:51.672Z,2.20
2022-09-23T16:41:19.804Z,2.42
2022-09-23T16:43:48.252Z,2.50
2022-09-23T16:46:18.478Z,2.60
2022-09-23T16:48:52.414Z,3.88
2022-09-23T16:51:23.749Z,5.03
2022-09-23T16:53:55.316Z,5.40
2022-09-23T16:56:29.344Z,6.10
2022-09-23T16:58:58.023Z,6.28
2022-09-23T17:01:46.615Z,7.35
2022-09-23T17:04:18.255Z,8.05
2022-09-23T17:06:49.934Z,8.73
2022-09-23T17:09:21.295Z,9.38
2022-09-23T17:11:59.305Z,10.25
2022-09-23T17:14:32.061Z,7.63
2022-09-23T17:17:00.538Z,9.77
2022-09-23T17:19:28.695Z,6.78
2022-09-23T17:21:56.821Z,6.82
2022-09-23T17:24:26.514Z,7.22
2022-09-23T17:26:54.648Z,8.10
2022-09-23T17:29:22.766Z,9.02
2022-09-23T17:31:50.934Z,8.18
2022-09-23T17:34:19.586Z,7.93
2022-09-23T17:36:47.808Z,7.32
2022-09-23T17:39:16.656Z,6.22
2022-09-23T17:41:46.339Z,6.78
2022-09-23T17:44:16.118Z,7.82
2022-09-23T17:46:44.534Z,8.20
2022-09-23T17:49:12.802Z,8.45
2022-09-23T17:51:41.038Z,6.93
2022-09-23T17:54:10.063Z,6.60
2022-09-23T17:56:38.190Z,6.18
2022-09-23T17:59:07.804Z,6.57
2022-09-23T18:01:36.195Z,9.90
2022-09-23T18:04:05.755Z,10.90
2022-09-23T18:06:36.676Z,10.95
2022-09-23T18:09:08.492Z,9.00
2022-09-23T18:11:39.422Z,8.73
2022-09-23T18:14:15.257Z,9.20
2022-09-23T18:16:47.079Z,7.72
2022-09-23T18:19:18.051Z,7.70
2022-09-23T18:21:49.459Z,8.50
2022-09-23T18:24:31.903Z,7.40
2022-09-23T18:27:01.014Z,7.60
2022-09-23T18:29:31.482Z,7.70
2022-09-23T18:32:00.207Z,7.18
2022-09-23T18:34:28.523Z,8.13
2022-09-23T18:36:56.687Z,16.88
2022-09-23T18:39:24.926Z,15.18
2022-09-23T18:41:53.100Z,12.68
2022-09-23T18:44:21.272Z,14.30
2022-09-23T18:46:50.751Z,12.88
2022-09-23T18:49:36.366Z,12.10
2022-09-23T18:52:04.536Z,10.75
2022-09-23T18:54:32.692Z,12.55
2022-09-23T18:57:01.189Z,11.63
2022-09-23T18:59:29.730Z,11.80
2022-09-23T19:01:59.332Z,14.05
2022-09-23T19:04:28.936Z,13.95
2022-09-23T19:06:57.894Z,14.02
2022-09-23T19:09:26.300Z,14.85
2022-09-23T19:11:55.020Z,14.85
2022-09-23T19:14:23.501Z,14.70
2022-09-23T19:16:51.953Z,15.32
2022-09-23T19:19:21.614Z,17.38
2022-09-23T19:21:49.766Z,18.63
2022-09-23T19:24:20.048Z,21.27
2022-09-23T19:26:48.459Z,20.75
2022-09-23T19:29:21.604Z,19.83
2022-09-23T19:31:50.961Z,21.02
2022-09-23T19:34:25.877Z,21.42
2022-09-23T19:36:57.243Z,21.88
2022-09-23T19:39:28.289Z,21.50
2022-09-23T19:41:56.963Z,19.67
2022-09-23T19:44:26.612Z,20.02
2022-09-23T19:46:57.137Z,16.23
2022-09-23T19:49:27.127Z,14.70
2022-09-23T19:51:56.848Z,17.02
2022-09-23T19:54:27.348Z,18.60
2022-09-23T19:56:56.209Z,15.73
2022-09-23T19:59:26.203Z,15.30
2022-09-23T20:01:54.403Z,14.80
2022-09-23T20:04:23.119Z,12.63
2022-09-23T20:06:52.656Z,13.15
2022-09-23T20:09:21.201Z,13.20
2022-09-23T20:11:49.618Z,13.60
2022-09-23T20:14:19.756Z,12.43
2022-09-23T20:16:48.294Z,14.73
2022-09-23T20:19:16.612Z,14.77
2022-09-23T20:21:44.751Z,13.67
2022-09-23T20:24:14.290Z,12.10
2022-09-23T20:27:00.152Z,10.63
2022-09-23T20:29:28.756Z,10.95
2022-09-23T20:31:59.131Z,10.35
2022-09-23T20:34:29.629Z,10.05
2022-09-23T20:36:59.156Z,9.13
2022-09-23T20:39:29.060Z,7.70
2022-09-23T20:41:57.438Z,8.05
2022-09-23T20:44:25.678Z,7.40
2022-09-23T20:46:53.879Z,8.80
2022-09-23T20:49:22.578Z,13.52
2022-09-23T20:51:51.458Z,11.87
2022-09-23T20:54:19.949Z,9.75
2022-09-23T20:56:49.512Z,9.05
2022-09-23T20:59:17.901Z,7.90
2022-09-23T21:01:47.453Z,7.97
2022-09-23T21:04:16.205Z,7.80
2022-09-23T21:06:44.441Z,8.37
2022-09-23T21:09:12.764Z,9.27
2022-09-23T21:11:40.883Z,9.15
2022-09-23T21:14:10.955Z,9.45
2022-09-23T21:16:39.496Z,9.55
2022-09-23T21:19:08.441Z,9.93
2022-09-23T21:21:36.776Z,8.57
2022-09-23T21:24:32.540Z,8.10
2022-09-23T21:26:53.332Z,7.30
2022-09-23T21:29:22.832Z,7.45
2022-09-23T21:31:51.008Z,6.88
2022-09-23T21:34:19.422Z,7.13
2022-09-23T21:36:49.597Z,7.17
2022-09-23T21:39:17.767Z,6.53
2022-09-23T21:41:45.894Z,6.80
2022-09-23T21:44:14.103Z,6.77
2022-09-23T21:46:43.746Z,7.43
2022-09-23T21:49:11.935Z,7.78
2022-09-23T21:51:42.122Z,7.90
2022-09-23T21:54:15.447Z,8.60
2022-09-23T21:56:45.129Z,9.27
2022-09-23T21:59:13.619Z,8.77
2022-09-23T22:01:45.104Z,7.73
2022-09-23T22:04:17.510Z,7.30
2022-09-23T22:06:46.761Z,7.40
2022-09-23T22:09:17.962Z,7.25
2022-09-23T22:12:04.735Z,7.63
2022-09-23T22:14:33.161Z,6.40
2022-09-23T22:17:04.924Z,6.60
2022-09-23T22:19:40.239Z,6.80
2022-09-23T22:22:14.435Z,7.23
2022-09-23T22:24:43.220Z,6.53
2022-09-23T22:27:13.463Z,6.70
2022-09-23T22:29:59.215Z,6.93
2022-09-23T22:32:41.232Z,7.13
2022-09-23T22:35:11.938Z,6.87
2022-09-23T22:37:40.297Z,7.27
2022-09-23T22:40:14.317Z,7.00
2022-09-23T22:42:43.951Z,6.53
2022-09-23T22:45:15.014Z,7.37
2022-09-23T22:47:45.982Z,6.50
2022-09-23T22:50:16.377Z,6.30
2022-09-23T22:52:44.726Z,6.60
2022-09-23T22:55:13.850Z,7.45
2022-09-23T22:57:42.197Z,6.88
2022-09-23T23:00:12.992Z,7.17
2022-09-23T23:02:42.287Z,6.60
2022-09-23T23:05:12.155Z,6.70
2022-09-23T23:07:40.472Z,6.60
2022-09-23T23:10:10.190Z,6.83
2022-09-23T23:12:39.448Z,6.47
2022-09-23T23:15:12.701Z,7.77
2022-09-23T23:17:43.574Z,6.47
2022-09-23T23:20:13.243Z,6.80
2022-09-23T23:22:41.420Z,6.95
2022-09-23T23:25:10.628Z,6.38
2022-09-23T23:27:38.781Z,6.53
2022-09-23T23:30:09.332Z,7.13
2022-09-23T23:32:37.698Z,6.60
2022-09-23T23:35:07.321Z,7.30
2022-09-23T23:37:36.875Z,6.83
2022-09-23T23:40:06.269Z,6.67
2022-09-23T23:42:34.606Z,6.63
2022-09-23T23:45:02.740Z,6.63
2022-09-23T23:47:30.810Z,6.70
2022-09-23T23:49:59.020Z,7.33
2022-09-23T23:52:27.141Z,6.70
2022-09-23T23:54:56.598Z,6.37
2022-09-23T23:57:24.809Z,6.87
2022-09-23T23:59:52.928Z,7.10
